sensor_id;sensor_type;location;lat;lon;timestamp;temperature;humidity
13848;DHT22;6994;49.752;6.094;2022-11-03T00:00:43;9.00;99.90
13848;DHT22;6994;49.752;6.094;2022-11-03T00:03:11;9.00;99.90
13848;DHT22;6994;49.752;6.094;2022-11-03T00:05:39;8.90;99.90
13848;DHT22;6994;49.752;6.094;2022-11-03T00:08:15;8.90;99.90
13848;DHT22;6994;49.752;6.094;2022-11-03T00:10:42;8.90;99.90
13848;DHT22;6994;49.752;6.094;2022-11-03T00:13:09;9.10;99.90
13848;DHT22;6994;49.752;6.094;2022-11-03T00:15:36;9.20;99.90
13848;DHT22;6994;49.752;6.094;2022-11-03T00:18:04;9.10;99.90
13848;DHT22;6994;49.752;6.094;2022-11-03T00:20:31;9.10;99.90
13848;DHT22;6994;49.752;6.094;2022-11-03T00:22:58;9.30;99.90
13848;DHT22;6994;49.752;6.094;2022-11-03T00:25:25;9.30;99.90
13848;DHT22;6994;49.752;6.094;2022-11-03T00:27:55;9.20;99.90
13848;DHT22;6994;49.752;6.094;2022-11-03T00:30:23;9.10;99.90
13848;DHT22;6994;49.752;6.094;2022-11-03T00:32:51;9.00;99.90
13848;DHT22;6994;49.752;6.094;2022-11-03T00:35:19;9.00;99.90
13848;DHT22;6994;49.752;6.094;2022-11-03T00:37:46;9.00;99.90
13848;DHT22;6994;49.752;6.094;2022-11-03T00:40:14;9.00;99.90
13848;DHT22;6994;49.752;6.094;2022-11-03T00:42:41;8.90;99.90
13848;DHT22;6994;49.752;6.094;2022-11-03T00:45:08;8.90;99.90
13848;DHT22;6994;49.752;6.094;2022-11-03T00:47:35;8.90;99.90
13848;DHT22;6994;49.752;6.094;2022-11-03T00:50:03;9.10;99.90
13848;DHT22;6994;49.752;6.094;2022-11-03T00:52:30;9.20;99.90
13848;DHT22;6994;49.752;6.094;2022-11-03T00:54:58;9.20;99.90
13848;DHT22;6994;49.752;6.094;2022-11-03T00:57:26;9.10;99.90
13848;DHT22;6994;49.752;6.094;2022-11-03T00:59:54;9.10;99.90
13848;DHT22;6994;49.752;6.094;2022-11-03T01:02:22;9.10;99.90
13848;DHT22;6994;49.752;6.094;2022-11-03T01:04:50;9.10;99.90
13848;DHT22;6994;49.752;6.094;2022-11-03T01:07:35;9.10;99.90
13848;DHT22;6994;49.752;6.094;2022-11-03T01:10:02;9.10;99.90
13848;DHT22;6994;49.752;6.094;2022-11-03T01:12:29;9.20;99.90
13848;DHT22;6994;49.752;6.094;2022-11-03T01:14:56;9.30;99.90
13848;DHT22;6994;49.752;6.094;2022-11-03T01:17:24;9.40;99.90
13848;DHT22;6994;49.752;6.094;2022-11-03T01:19:51;9.50;99.90
13848;DHT22;6994;49.752;6.094;2022-11-03T01:22:18;9.60;99.90
13848;DHT22;6994;49.752;6.094;2022-11-03T01:24:45;9.70;99.90
13848;DHT22;6994;49.752;6.094;2022-11-03T01:27:14;9.80;99.90
13848;DHT22;6994;49.752;6.094;2022-11-03T01:29:40;9.90;99.90
13848;DHT22;6994;49.752;6.094;2022-11-03T01:32:08;9.90;99.90
13848;DHT22;6994;49.752;6.094;2022-11-03T01:34:36;9.90;99.90
13848;DHT22;6994;49.752;6.094;2022-11-03T01:37:04;10.00;99.90
13848;DHT22;6994;49.752;6.094;2022-11-03T01:39:32;10.00;99.90
13848;DHT22;6994;49.752;6.094;2022-11-03T01:41:59;10.00;99.90
13848;DHT22;6994;49.752;6.094;2022-11-03T01:44:28;10.00;99.90
13848;DHT22;6994;49.752;6.094;2022-11-03T01:46:56;10.30;99.90
13848;DHT22;6994;49.752;6.094;2022-11-03T01:51:50;10.30;99.90
13848;DHT22;6994;49.752;6.094;2022-11-03T01:54:16;10.30;99.90
13848;DHT22;6994;49.752;6.094;2022-11-03T01:56:43;10.30;99.90
13848;DHT22;6994;49.752;6.094;2022-11-03T01:59:10;10.20;99.90
13848;DHT22;6994;49.752;6.094;2022-11-03T02:01:37;10.20;99.90
13848;DHT22;6994;49.752;6.094;2022-11-03T02:04:11;10.40;99.90
13848;DHT22;6994;49.752;6.094;2022-11-03T02:06:34;10.40;99.90
13848;DHT22;6994;49.752;6.094;2022-11-03T02:09:05;10.40;99.90
13848;DHT22;6994;49.752;6.094;2022-11-03T02:11:33;10.40;99.90
13848;DHT22;6994;49.752;6.094;2022-11-03T02:14:17;10.20;99.90
13848;DHT22;6994;49.752;6.094;2022-11-03T02:16:52;10.10;99.90
13848;DHT22;6994;49.752;6.094;2022-11-03T02:19:20;10.00;99.90
13848;DHT22;6994;49.752;6.094;2022-11-03T02:21:47;10.00;99.90
13848;DHT22;6994;49.752;6.094;2022-11-03T02:24:21;10.10;99.90
13848;DHT22;6994;49.752;6.094;2022-11-03T02:26:46;10.10;99.90
13848;DHT22;6994;49.752;6.094;2022-11-03T02:29:12;10.30;99.90
13848;DHT22;6994;49.752;6.094;2022-11-03T02:31:48;10.10;99.90
13848;DHT22;6994;49.752;6.094;2022-11-03T02:34:18;10.00;99.90
13848;DHT22;6994;49.752;6.094;2022-11-03T02:36:58;10.00;99.90
13848;DHT22;6994;49.752;6.094;2022-11-03T02:39:43;10.00;99.90
13848;DHT22;6994;49.752;6.094;2022-11-03T02:42:06;10.00;99.90
13848;DHT22;6994;49.752;6.094;2022-11-03T02:44:33;9.90;99.90
13848;DHT22;6994;49.752;6.094;2022-11-03T02:47:01;10.10;99.90
13848;DHT22;6994;49.752;6.094;2022-11-03T02:49:28;10.00;99.90
13848;DHT22;6994;49.752;6.094;2022-11-03T02:51:58;10.00;99.90
13848;DHT22;6994;49.752;6.094;2022-11-03T02:54:25;9.80;99.90
13848;DHT22;6994;49.752;6.094;2022-11-03T02:56:53;9.70;99.90
13848;DHT22;6994;49.752;6.094;2022-11-03T02:59:22;9.60;99.90
13848;DHT22;6994;49.752;6.094;2022-11-03T03:02:13;9.70;99.90
13848;DHT22;6994;49.752;6.094;2022-11-03T03:04:27;9.70;99.90
13848;DHT22;6994;49.752;6.094;2022-11-03T03:07:03;9.80;99.90
13848;DHT22;6994;49.752;6.094;2022-11-03T03:09:30;9.80;99.90
13848;DHT22;6994;49.752;6.094;2022-11-03T03:11:56;9.70;99.90
13848;DHT22;6994;49.752;6.094;2022-11-03T03:14:34;9.50;99.90
13848;DHT22;6994;49.752;6.094;2022-11-03T03:17:06;9.40;99.90
13848;DHT22;6994;49.752;6.094;2022-11-03T03:22:10;9.40;99.90
13848;DHT22;6994;49.752;6.094;2022-11-03T03:24:44;9.40;99.90
13848;DHT22;6994;49.752;6.094;2022-11-03T03:27:09;9.60;99.90
13848;DHT22;6994;49.752;6.094;2022-11-03T03:29:37;9.60;99.90
13848;DHT22;6994;49.752;6.094;2022-11-03T03:32:05;9.50;99.90
13848;DHT22;6994;49.752;6.094;2022-11-03T03:34:30;9.40;99.90
13848;DHT22;6994;49.752;6.094;2022-11-03T03:36:58;9.20;99.90
13848;DHT22;6994;49.752;6.094;2022-11-03T03:39:26;9.20;99.90
13848;DHT22;6994;49.752;6.094;2022-11-03T03:41:52;9.10;99.90
13848;DHT22;6994;49.752;6.094;2022-11-03T03:44:19;9.10;99.90
13848;DHT22;6994;49.752;6.094;2022-11-03T03:46:48;9.00;99.90
13848;DHT22;6994;49.752;6.094;2022-11-03T03:49:14;9.00;99.90
13848;DHT22;6994;49.752;6.094;2022-11-03T03:51:41;8.90;99.90
13848;DHT22;6994;49.752;6.094;2022-11-03T03:54:08;8.90;99.90
13848;DHT22;6994;49.752;6.094;2022-11-03T03:56:46;8.90;99.90
13848;DHT22;6994;49.752;6.094;2022-11-03T03:59:12;8.90;99.90
13848;DHT22;6994;49.752;6.094;2022-11-03T04:01:39;8.90;99.90
13848;DHT22;6994;49.752;6.094;2022-11-03T04:04:06;8.90;99.90
13848;DHT22;6994;49.752;6.094;2022-11-03T04:06:33;9.10;99.90
13848;DHT22;6994;49.752;6.094;2022-11-03T04:09:01;9.20;99.90
13848;DHT22;6994;49.752;6.094;2022-11-03T04:11:28;9.30;99.90
13848;DHT22;6994;49.752;6.094;2022-11-03T04:14:13;9.40;99.90
13848;DHT22;6994;49.752;6.094;2022-11-03T04:16:58;9.40;99.90
13848;DHT22;6994;49.752;6.094;2022-11-03T04:19:43;9.60;99.90
13848;DHT22;6994;49.752;6.094;2022-11-03T04:22:30;9.70;99.90
13848;DHT22;6994;49.752;6.094;2022-11-03T04:24:56;9.80;99.90
13848;DHT22;6994;49.752;6.094;2022-11-03T04:27:39;9.80;99.90
13848;DHT22;6994;49.752;6.094;2022-11-03T04:30:17;9.90;99.90
13848;DHT22;6994;49.752;6.094;2022-11-03T04:32:45;9.90;99.90
13848;DHT22;6994;49.752;6.094;2022-11-03T04:35:15;9.90;99.90
13848;DHT22;6994;49.752;6.094;2022-11-03T04:37:42;10.10;99.90
13848;DHT22;6994;49.752;6.094;2022-11-03T04:40:12;10.20;99.90
13848;DHT22;6994;49.752;6.094;2022-11-03T04:42:36;10.20;99.90
13848;DHT22;6994;49.752;6.094;2022-11-03T04:45:05;10.20;99.90
13848;DHT22;6994;49.752;6.094;2022-11-03T04:47:30;10.30;99.90
13848;DHT22;6994;49.752;6.094;2022-11-03T04:49:58;10.30;99.90
13848;DHT22;6994;49.752;6.094;2022-11-03T04:52:25;10.30;99.90
13848;DHT22;6994;49.752;6.094;2022-11-03T04:54:52;10.30;99.90
13848;DHT22;6994;49.752;6.094;2022-11-03T04:57:19;10.30;99.90
13848;DHT22;6994;49.752;6.094;2022-11-03T04:59:48;10.40;99.90
13848;DHT22;6994;49.752;6.094;2022-11-03T05:02:21;10.40;99.90
13848;DHT22;6994;49.752;6.094;2022-11-03T05:04:44;10.40;99.90
13848;DHT22;6994;49.752;6.094;2022-11-03T05:07:32;10.40;99.90
13848;DHT22;6994;49.752;6.094;2022-11-03T05:09:58;10.40;99.90
13848;DHT22;6994;49.752;6.094;2022-11-03T05:12:26;10.40;99.90
13848;DHT22;6994;49.752;6.094;2022-11-03T05:14:53;10.30;99.90
13848;DHT22;6994;49.752;6.094;2022-11-03T05:17:22;10.40;99.90
13848;DHT22;6994;49.752;6.094;2022-11-03T05:19:48;10.40;99.90
13848;DHT22;6994;49.752;6.094;2022-11-03T05:22:15;10.40;99.90
13848;DHT22;6994;49.752;6.094;2022-11-03T05:24:42;10.40;99.90
13848;DHT22;6994;49.752;6.094;2022-11-03T05:27:14;10.60;99.90
13848;DHT22;6994;49.752;6.094;2022-11-03T05:29:37;10.70;99.90
13848;DHT22;6994;49.752;6.094;2022-11-03T05:32:15;10.80;99.90
13848;DHT22;6994;49.752;6.094;2022-11-03T05:34:45;10.80;99.90
13848;DHT22;6994;49.752;6.094;2022-11-03T05:37:32;10.80;99.90
13848;DHT22;6994;49.752;6.094;2022-11-03T05:40:06;10.70;99.90
13848;DHT22;6994;49.752;6.094;2022-11-03T05:44:57;10.70;99.90
13848;DHT22;6994;49.752;6.094;2022-11-03T05:47:26;10.60;99.90
13848;DHT22;6994;49.752;6.094;2022-11-03T05:49:55;10.60;99.90
13848;DHT22;6994;49.752;6.094;2022-11-03T05:52:23;10.60;99.90
13848;DHT22;6994;49.752;6.094;2022-11-03T05:54:46;10.70;99.90
13848;DHT22;6994;49.752;6.094;2022-11-03T05:57:13;10.80;99.90
13848;DHT22;6994;49.752;6.094;2022-11-03T05:59:42;10.70;99.90
13848;DHT22;6994;49.752;6.094;2022-11-03T06:02:55;10.70;99.90
13848;DHT22;6994;49.752;6.094;2022-11-03T06:04:39;10.70;99.90
13848;DHT22;6994;49.752;6.094;2022-11-03T06:07:19;10.60;99.90
13848;DHT22;6994;49.752;6.094;2022-11-03T06:09:42;10.60;99.90
13848;DHT22;6994;49.752;6.094;2022-11-03T06:12:10;10.60;99.90
13848;DHT22;6994;49.752;6.094;2022-11-03T06:14:36;10.60;99.90
13848;DHT22;6994;49.752;6.094;2022-11-03T06:17:09;10.50;99.90
13848;DHT22;6994;49.752;6.094;2022-11-03T06:19:38;10.50;99.90
13848;DHT22;6994;49.752;6.094;2022-11-03T06:22:13;10.50;99.90
13848;DHT22;6994;49.752;6.094;2022-11-03T06:24:37;10.50;99.90
13848;DHT22;6994;49.752;6.094;2022-11-03T06:27:08;10.70;99.90
13848;DHT22;6994;49.752;6.094;2022-11-03T06:29:32;10.70;99.90
13848;DHT22;6994;49.752;6.094;2022-11-03T06:32:00;10.70;99.90
13848;DHT22;6994;49.752;6.094;2022-11-03T06:37:01;10.60;99.90
13848;DHT22;6994;49.752;6.094;2022-11-03T06:39:27;10.60;99.90
13848;DHT22;6994;49.752;6.094;2022-11-03T06:41:54;10.50;99.90
13848;DHT22;6994;49.752;6.094;2022-11-03T06:44:25;10.70;99.90
13848;DHT22;6994;49.752;6.094;2022-11-03T06:46:49;10.70;99.90
13848;DHT22;6994;49.752;6.094;2022-11-03T06:49:32;10.70;99.90
13848;DHT22;6994;49.752;6.094;2022-11-03T06:51:55;10.90;99.90
13848;DHT22;6994;49.752;6.094;2022-11-03T06:54:22;10.90;99.90
13848;DHT22;6994;49.752;6.094;2022-11-03T06:56:49;11.10;99.90
13848;DHT22;6994;49.752;6.094;2022-11-03T06:59:16;11.10;99.90
13848;DHT22;6994;49.752;6.094;2022-11-03T07:01:44;11.00;99.90
13848;DHT22;6994;49.752;6.094;2022-11-03T07:04:15;11.00;99.90
13848;DHT22;6994;49.752;6.094;2022-11-03T07:06:41;10.90;99.90
13848;DHT22;6994;49.752;6.094;2022-11-03T07:09:12;10.90;99.90
13848;DHT22;6994;49.752;6.094;2022-11-03T07:16:42;11.30;99.90
13848;DHT22;6994;49.752;6.094;2022-11-03T07:19:26;11.30;99.90
13848;DHT22;6994;49.752;6.094;2022-11-03T07:21:53;11.30;99.90
13848;DHT22;6994;49.752;6.094;2022-11-03T07:24:24;11.30;99.90
13848;DHT22;6994;49.752;6.094;2022-11-03T07:27:39;11.30;99.90
13848;DHT22;6994;49.752;6.094;2022-11-03T07:29:21;11.50;99.90
13848;DHT22;6994;49.752;6.094;2022-11-03T07:31:48;11.60;99.90
13848;DHT22;6994;49.752;6.094;2022-11-03T07:34:18;11.60;99.90
13848;DHT22;6994;49.752;6.094;2022-11-03T07:36:42;11.70;99.90
13848;DHT22;6994;49.752;6.094;2022-11-03T07:39:11;11.70;99.90
13848;DHT22;6994;49.752;6.094;2022-11-03T07:41:36;11.90;99.90
13848;DHT22;6994;49.752;6.094;2022-11-03T07:44:04;11.90;99.90
13848;DHT22;6994;49.752;6.094;2022-11-03T07:46:31;11.80;99.90
13848;DHT22;6994;49.752;6.094;2022-11-03T07:48:59;11.70;99.90
13848;DHT22;6994;49.752;6.094;2022-11-03T07:51:30;11.60;99.90
13848;DHT22;6994;49.752;6.094;2022-11-03T07:54:04;11.50;99.90
13848;DHT22;6994;49.752;6.094;2022-11-03T07:56:42;11.50;99.90
13848;DHT22;6994;49.752;6.094;2022-11-03T08:01:41;11.60;99.90
13848;DHT22;6994;49.752;6.094;2022-11-03T08:04:07;11.70;99.90
13848;DHT22;6994;49.752;6.094;2022-11-03T08:06:34;11.70;99.90
13848;DHT22;6994;49.752;6.094;2022-11-03T08:09:02;11.70;99.90
13848;DHT22;6994;49.752;6.094;2022-11-03T08:11:30;11.70;99.90
13848;DHT22;6994;49.752;6.094;2022-11-03T08:13:57;11.70;99.90
13848;DHT22;6994;49.752;6.094;2022-11-03T08:16:24;11.70;99.90
13848;DHT22;6994;49.752;6.094;2022-11-03T08:18:52;12.00;99.90
13848;DHT22;6994;49.752;6.094;2022-11-03T08:21:20;12.00;99.90
13848;DHT22;6994;49.752;6.094;2022-11-03T08:23:47;12.00;99.90
13848;DHT22;6994;49.752;6.094;2022-11-03T08:26:14;12.10;99.90
13848;DHT22;6994;49.752;6.094;2022-11-03T08:28:42;12.10;99.90
13848;DHT22;6994;49.752;6.094;2022-11-03T08:31:09;12.10;99.90
13848;DHT22;6994;49.752;6.094;2022-11-03T08:33:36;12.10;99.90
13848;DHT22;6994;49.752;6.094;2022-11-03T08:36:03;12.30;99.90
13848;DHT22;6994;49.752;6.094;2022-11-03T08:38:30;12.40;99.90
13848;DHT22;6994;49.752;6.094;2022-11-03T08:40:58;12.40;99.90
13848;DHT22;6994;49.752;6.094;2022-11-03T08:43:25;12.30;99.90
13848;DHT22;6994;49.752;6.094;2022-11-03T08:45:53;12.30;99.90
13848;DHT22;6994;49.752;6.094;2022-11-03T08:48:21;12.20;99.90
13848;DHT22;6994;49.752;6.094;2022-11-03T08:50:49;12.20;99.90
13848;DHT22;6994;49.752;6.094;2022-11-03T08:53:17;12.30;99.90
13848;DHT22;6994;49.752;6.094;2022-11-03T08:55:45;12.30;99.90
13848;DHT22;6994;49.752;6.094;2022-11-03T08:58:13;12.40;99.90
13848;DHT22;6994;49.752;6.094;2022-11-03T09:00:40;12.40;99.90
13848;DHT22;6994;49.752;6.094;2022-11-03T09:03:07;12.40;99.90
13848;DHT22;6994;49.752;6.094;2022-11-03T09:05:34;12.50;99.90
13848;DHT22;6994;49.752;6.094;2022-11-03T09:08:02;12.50;99.90
13848;DHT22;6994;49.752;6.094;2022-11-03T09:10:29;12.50;99.90
13848;DHT22;6994;49.752;6.094;2022-11-03T09:12:56;12.50;99.90
13848;DHT22;6994;49.752;6.094;2022-11-03T09:15:23;12.40;99.90
13848;DHT22;6994;49.752;6.094;2022-11-03T09:17:50;12.50;99.90
13848;DHT22;6994;49.752;6.094;2022-11-03T09:20:18;12.50;99.90
13848;DHT22;6994;49.752;6.094;2022-11-03T09:22:46;12.60;99.90
13848;DHT22;6994;49.752;6.094;2022-11-03T09:25:14;12.60;99.90
13848;DHT22;6994;49.752;6.094;2022-11-03T09:27:41;12.60;99.90
13848;DHT22;6994;49.752;6.094;2022-11-03T09:30:10;12.70;99.90
13848;DHT22;6994;49.752;6.094;2022-11-03T09:32:37;12.70;99.90
13848;DHT22;6994;49.752;6.094;2022-11-03T09:35:05;12.70;99.90
13848;DHT22;6994;49.752;6.094;2022-11-03T09:37:32;12.60;99.90
13848;DHT22;6994;49.752;6.094;2022-11-03T09:39:59;12.60;99.90
13848;DHT22;6994;49.752;6.094;2022-11-03T09:42:26;12.60;99.90
13848;DHT22;6994;49.752;6.094;2022-11-03T09:44:54;12.50;99.90
13848;DHT22;6994;49.752;6.094;2022-11-03T09:47:28;12.50;99.90
13848;DHT22;6994;49.752;6.094;2022-11-03T09:49:51;12.50;99.90
13848;DHT22;6994;49.752;6.094;2022-11-03T09:52:21;12.50;99.90
13848;DHT22;6994;49.752;6.094;2022-11-03T09:54:50;12.80;99.90
13848;DHT22;6994;49.752;6.094;2022-11-03T09:57:17;12.80;99.90
13848;DHT22;6994;49.752;6.094;2022-11-03T09:59:45;12.80;99.90
13848;DHT22;6994;49.752;6.094;2022-11-03T10:02:35;12.80;99.90
13848;DHT22;6994;49.752;6.094;2022-11-03T10:04:41;12.70;99.90
13848;DHT22;6994;49.752;6.094;2022-11-03T10:07:09;12.70;99.90
13848;DHT22;6994;49.752;6.094;2022-11-03T10:09:36;12.60;99.90
13848;DHT22;6994;49.752;6.094;2022-11-03T10:12:03;12.70;99.90
13848;DHT22;6994;49.752;6.094;2022-11-03T10:14:30;12.70;99.90
13848;DHT22;6994;49.752;6.094;2022-11-03T10:16:58;12.70;99.90
13848;DHT22;6994;49.752;6.094;2022-11-03T10:19:28;12.80;99.90
13848;DHT22;6994;49.752;6.094;2022-11-03T10:21:56;12.90;99.90
13848;DHT22;6994;49.752;6.094;2022-11-03T10:24:24;13.00;99.90
13848;DHT22;6994;49.752;6.094;2022-11-03T10:26:52;12.90;99.90
13848;DHT22;6994;49.752;6.094;2022-11-03T10:29:21;12.90;99.90
13848;DHT22;6994;49.752;6.094;2022-11-03T10:31:49;12.90;99.90
13848;DHT22;6994;49.752;6.094;2022-11-03T10:34:23;13.00;99.90
13848;DHT22;6994;49.752;6.094;2022-11-03T10:36:49;13.00;99.90
13848;DHT22;6994;49.752;6.094;2022-11-03T10:39:23;13.00;99.90
13848;DHT22;6994;49.752;6.094;2022-11-03T10:41:55;13.10;99.90
13848;DHT22;6994;49.752;6.094;2022-11-03T10:44:22;13.30;99.90
13848;DHT22;6994;49.752;6.094;2022-11-03T10:47:00;13.50;99.90
13848;DHT22;6994;49.752;6.094;2022-11-03T10:49:28;13.50;99.90
13848;DHT22;6994;49.752;6.094;2022-11-03T10:52:42;13.50;99.90
13848;DHT22;6994;49.752;6.094;2022-11-03T10:54:23;13.60;99.90
13848;DHT22;6994;49.752;6.094;2022-11-03T10:56:51;13.60;99.90
13848;DHT22;6994;49.752;6.094;2022-11-03T10:59:26;13.60;99.90
13848;DHT22;6994;49.752;6.094;2022-11-03T11:01:52;13.60;99.90
13848;DHT22;6994;49.752;6.094;2022-11-03T11:04:20;13.60;99.90
13848;DHT22;6994;49.752;6.094;2022-11-03T11:06:48;13.60;99.90
13848;DHT22;6994;49.752;6.094;2022-11-03T11:09:22;13.70;99.90
13848;DHT22;6994;49.752;6.094;2022-11-03T11:11:59;13.70;99.90
13848;DHT22;6994;49.752;6.094;2022-11-03T11:16:58;14.00;99.90
13848;DHT22;6994;49.752;6.094;2022-11-03T11:19:25;14.00;99.90
13848;DHT22;6994;49.752;6.094;2022-11-03T11:30:01;14.10;99.90
13848;DHT22;6994;49.752;6.094;2022-11-03T11:37:50;14.20;99.90
13848;DHT22;6994;49.752;6.094;2022-11-03T11:48:33;14.20;99.90
13848;DHT22;6994;49.752;6.094;2022-11-03T11:51:00;14.10;99.90
13848;DHT22;6994;49.752;6.094;2022-11-03T11:53:28;14.10;99.90
13848;DHT22;6994;49.752;6.094;2022-11-03T11:55:58;14.10;99.90
13848;DHT22;6994;49.752;6.094;2022-11-03T11:58:36;14.10;99.90
13848;DHT22;6994;49.752;6.094;2022-11-03T12:01:01;14.10;99.90
13848;DHT22;6994;49.752;6.094;2022-11-03T12:03:37;14.10;99.90
13848;DHT22;6994;49.752;6.094;2022-11-03T12:06:05;14.20;99.90
13848;DHT22;6994;49.752;6.094;2022-11-03T12:08:33;14.40;99.90
13848;DHT22;6994;49.752;6.094;2022-11-03T12:11:02;14.40;99.90
13848;DHT22;6994;49.752;6.094;2022-11-03T12:13:45;14.40;99.90
13848;DHT22;6994;49.752;6.094;2022-11-03T12:16:32;14.40;99.90
13848;DHT22;6994;49.752;6.094;2022-11-03T12:19:05;14.50;99.90
13848;DHT22;6994;49.752;6.094;2022-11-03T12:21:46;14.40;99.90
13848;DHT22;6994;49.752;6.094;2022-11-03T12:26:57;14.40;99.90
13848;DHT22;6994;49.752;6.094;2022-11-03T12:29:23;14.30;99.90
13848;DHT22;6994;49.752;6.094;2022-11-03T12:31:51;14.30;99.90
13848;DHT22;6994;49.752;6.094;2022-11-03T12:34:19;14.20;99.90
13848;DHT22;6994;49.752;6.094;2022-11-03T12:36:46;14.20;99.90
13848;DHT22;6994;49.752;6.094;2022-11-03T12:39:13;14.20;99.90
13848;DHT22;6994;49.752;6.094;2022-11-03T12:41:41;14.10;99.90
13848;DHT22;6994;49.752;6.094;2022-11-03T12:44:09;14.10;99.90
13848;DHT22;6994;49.752;6.094;2022-11-03T12:46:36;14.10;99.90
13848;DHT22;6994;49.752;6.094;2022-11-03T12:49:03;14.00;99.90
13848;DHT22;6994;49.752;6.094;2022-11-03T12:51:31;14.00;99.90
13848;DHT22;6994;49.752;6.094;2022-11-03T12:53:58;14.20;99.90
13848;DHT22;6994;49.752;6.094;2022-11-03T12:56:25;14.10;99.90
13848;DHT22;6994;49.752;6.094;2022-11-03T12:58:52;14.10;99.90
13848;DHT22;6994;49.752;6.094;2022-11-03T13:01:19;13.90;99.90
13848;DHT22;6994;49.752;6.094;2022-11-03T13:03:47;13.70;99.90
13848;DHT22;6994;49.752;6.094;2022-11-03T13:06:14;13.60;99.90
13848;DHT22;6994;49.752;6.094;2022-11-03T13:08:42;13.20;99.90
13848;DHT22;6994;49.752;6.094;2022-11-03T13:11:10;13.00;99.90
13848;DHT22;6994;49.752;6.094;2022-11-03T13:13:55;12.90;99.90
13848;DHT22;6994;49.752;6.094;2022-11-03T13:16:22;12.70;99.90
13848;DHT22;6994;49.752;6.094;2022-11-03T13:18:49;12.60;99.90
13848;DHT22;6994;49.752;6.094;2022-11-03T13:21:17;12.50;99.90
13848;DHT22;6994;49.752;6.094;2022-11-03T13:23:44;12.50;99.90
13848;DHT22;6994;49.752;6.094;2022-11-03T13:26:11;12.60;99.90
13848;DHT22;6994;49.752;6.094;2022-11-03T13:28:38;12.60;99.90
13848;DHT22;6994;49.752;6.094;2022-11-03T13:31:06;12.40;99.90
13848;DHT22;6994;49.752;6.094;2022-11-03T13:33:34;12.30;99.90
13848;DHT22;6994;49.752;6.094;2022-11-03T13:36:02;12.20;99.90
13848;DHT22;6994;49.752;6.094;2022-11-03T13:38:31;12.00;99.90
13848;DHT22;6994;49.752;6.094;2022-11-03T13:40:58;12.00;99.90
13848;DHT22;6994;49.752;6.094;2022-11-03T13:43:25;12.00;99.90
13848;DHT22;6994;49.752;6.094;2022-11-03T13:45:52;12.00;99.90
13848;DHT22;6994;49.752;6.094;2022-11-03T13:48:20;12.10;99.90
13848;DHT22;6994;49.752;6.094;2022-11-03T13:50:47;12.20;99.90
13848;DHT22;6994;49.752;6.094;2022-11-03T13:53:15;12.10;99.90
13848;DHT22;6994;49.752;6.094;2022-11-03T13:55:43;12.00;99.90
13848;DHT22;6994;49.752;6.094;2022-11-03T13:58:11;11.90;99.90
13848;DHT22;6994;49.752;6.094;2022-11-03T14:00:39;11.90;99.90
13848;DHT22;6994;49.752;6.094;2022-11-03T14:03:07;11.80;99.90
13848;DHT22;6994;49.752;6.094;2022-11-03T14:05:35;11.80;99.90
13848;DHT22;6994;49.752;6.094;2022-11-03T14:08:03;11.80;99.90
13848;DHT22;6994;49.752;6.094;2022-11-03T14:10:31;11.80;99.90
13848;DHT22;6994;49.752;6.094;2022-11-03T14:12:58;11.70;99.90
13848;DHT22;6994;49.752;6.094;2022-11-03T14:15:25;11.70;99.90
13848;DHT22;6994;49.752;6.094;2022-11-03T14:17:52;11.70;99.90
13848;DHT22;6994;49.752;6.094;2022-11-03T14:20:19;11.90;99.90
13848;DHT22;6994;49.752;6.094;2022-11-03T14:22:47;11.90;99.90
13848;DHT22;6994;49.752;6.094;2022-11-03T14:25:14;12.10;99.90
13848;DHT22;6994;49.752;6.094;2022-11-03T14:27:41;12.40;99.90
13848;DHT22;6994;49.752;6.094;2022-11-03T14:30:08;12.30;99.90
13848;DHT22;6994;49.752;6.094;2022-11-03T14:32:36;12.30;99.90
13848;DHT22;6994;49.752;6.094;2022-11-03T14:35:03;12.20;99.90
13848;DHT22;6994;49.752;6.094;2022-11-03T14:37:30;12.30;99.90
13848;DHT22;6994;49.752;6.094;2022-11-03T14:39:58;12.40;99.90
13848;DHT22;6994;49.752;6.094;2022-11-03T14:42:26;12.40;99.90
13848;DHT22;6994;49.752;6.094;2022-11-03T14:44:54;12.30;99.90
13848;DHT22;6994;49.752;6.094;2022-11-03T14:47:21;12.30;99.90
13848;DHT22;6994;49.752;6.094;2022-11-03T14:49:48;12.20;99.90
13848;DHT22;6994;49.752;6.094;2022-11-03T14:52:16;12.10;99.90
13848;DHT22;6994;49.752;6.094;2022-11-03T14:54:43;12.10;99.90
13848;DHT22;6994;49.752;6.094;2022-11-03T14:57:10;12.00;99.90
13848;DHT22;6994;49.752;6.094;2022-11-03T14:59:37;12.00;99.90
13848;DHT22;6994;49.752;6.094;2022-11-03T15:02:04;11.90;99.90
13848;DHT22;6994;49.752;6.094;2022-11-03T15:04:32;11.90;99.90
13848;DHT22;6994;49.752;6.094;2022-11-03T15:06:59;11.90;99.90
13848;DHT22;6994;49.752;6.094;2022-11-03T15:09:27;11.90;99.90
13848;DHT22;6994;49.752;6.094;2022-11-03T15:11:55;11.90;99.90
13848;DHT22;6994;49.752;6.094;2022-11-03T15:14:23;11.90;99.90
13848;DHT22;6994;49.752;6.094;2022-11-03T15:16:51;11.90;99.90
13848;DHT22;6994;49.752;6.094;2022-11-03T15:19:19;11.90;99.90
13848;DHT22;6994;49.752;6.094;2022-11-03T15:21:46;11.90;99.90
13848;DHT22;6994;49.752;6.094;2022-11-03T15:24:13;11.90;99.90
13848;DHT22;6994;49.752;6.094;2022-11-03T15:26:40;11.90;99.90
13848;DHT22;6994;49.752;6.094;2022-11-03T15:29:07;11.90;99.90
13848;DHT22;6994;49.752;6.094;2022-11-03T15:31:35;12.00;99.90
13848;DHT22;6994;49.752;6.094;2022-11-03T15:34:03;12.00;99.90
13848;DHT22;6994;49.752;6.094;2022-11-03T15:36:31;12.00;99.90
13848;DHT22;6994;49.752;6.094;2022-11-03T15:38:59;12.00;99.90
13848;DHT22;6994;49.752;6.094;2022-11-03T15:41:27;11.90;99.90
13848;DHT22;6994;49.752;6.094;2022-11-03T15:43:55;11.90;99.90
13848;DHT22;6994;49.752;6.094;2022-11-03T15:46:22;11.90;99.90
13848;DHT22;6994;49.752;6.094;2022-11-03T15:48:49;12.10;99.90
13848;DHT22;6994;49.752;6.094;2022-11-03T15:51:16;12.20;99.90
13848;DHT22;6994;49.752;6.094;2022-11-03T15:53:43;12.10;99.90
13848;DHT22;6994;49.752;6.094;2022-11-03T15:56:11;12.10;99.90
13848;DHT22;6994;49.752;6.094;2022-11-03T15:58:38;12.20;99.90
13848;DHT22;6994;49.752;6.094;2022-11-03T16:01:05;12.20;99.90
13848;DHT22;6994;49.752;6.094;2022-11-03T16:03:32;12.20;99.90
13848;DHT22;6994;49.752;6.094;2022-11-03T16:05:59;12.10;99.90
13848;DHT22;6994;49.752;6.094;2022-11-03T16:08:27;12.00;99.90
13848;DHT22;6994;49.752;6.094;2022-11-03T16:10:55;12.00;99.90
13848;DHT22;6994;49.752;6.094;2022-11-03T16:13:23;11.90;99.90
13848;DHT22;6994;49.752;6.094;2022-11-03T16:15:52;11.90;99.90
13848;DHT22;6994;49.752;6.094;2022-11-03T16:18:22;11.90;99.90
13848;DHT22;6994;49.752;6.094;2022-11-03T16:20:49;11.90;99.90
13848;DHT22;6994;49.752;6.094;2022-11-03T16:23:16;11.80;99.90
13848;DHT22;6994;49.752;6.094;2022-11-03T16:25:43;12.00;99.90
13848;DHT22;6994;49.752;6.094;2022-11-03T16:28:10;12.00;99.90
13848;DHT22;6994;49.752;6.094;2022-11-03T16:30:38;12.20;99.90
13848;DHT22;6994;49.752;6.094;2022-11-03T16:33:05;12.20;99.90
13848;DHT22;6994;49.752;6.094;2022-11-03T16:35:32;12.20;99.90
13848;DHT22;6994;49.752;6.094;2022-11-03T16:37:59;12.20;99.90
13848;DHT22;6994;49.752;6.094;2022-11-03T16:40:27;12.00;99.90
13848;DHT22;6994;49.752;6.094;2022-11-03T16:42:55;12.00;99.90